Portada
METAR-TAF:

METAR-TAF

Aeroports :

Mountain Empire Airport

Marion-Wytheville, Virgínia, Estats Units d'Amèrica

latitud: 36-54N, longitud: 081-21W, altitud: 780 m

Observació

L'informe es va fer fa 1 hora i 8 minuts, a les 21:35 UTC
Vent 6 kt del Est
Temperatura 3°C
Humitat 35%
Pressió 1024 hPa
Visibilitat: 16.1 km
Cel clar

METAR: KMKJ 132135Z AUTO 08006KT 10SM CLR 03/M11 A3024 RMK AO2 T00331114

Hora: 17:43 (22:43 UTC)


TAF: manca

Observacions i pronòstics meteorològics de més de 4000 aeroports (METAR i TAF).

Les estacions disponibles són els punts grocs i vermells al mapa.

Posi el ratolí al punt desitjat per veure el nom de l'estació.

Feu clic per veure les observacions i els pronòstics meteorològics.

Per canviar el mapa: feu clic els botons verds amb una creu de color negre per apropar; al botó verd amb un guió per allunyar la imatge; o en les fletxes verdes per a mapes adjacents.


METAR-TAF: